WetterOnline ( https://www.wetteronline.de )

Wetter aktuell Potsdam

Aktuelles Wetter: Berlin-Dahlem (70m)

6-stündlich | Neueste Meldungen
Ortszeit Temperatur Wetter
Do, 23.05. 2:00 14.9° C bedeckt
Mi, 22.05. 20:00 16.3° C bedeckt
Mi, 22.05. 14:00 24.4° C bewölkt
Mi, 22.05. 8:00 20.5° C wolkig
Mi, 22.05. 2:00 20.6° C wolkig
Di, 21.05. 20:00 24.3° C wolkig
Di, 21.05. 14:00 25.5° C wolkig
Di, 21.05. 8:00 16.2° C leicht bewölkt
Ortszeit Temperatur Wetter
Do, 23.05. 7:00 15.2° C wolkig
Do, 23.05. 6:00 14.9° C bewölkt, nach Regen
Do, 23.05. 5:00 14.9° C leichter Regen
Do, 23.05. 4:00 15.0° C bedeckt
Do, 23.05. 3:00 15.0° C bedeckt
Do, 23.05. 2:00 14.9° C bedeckt, nach Regen
Ortszeit Relative Feuchte Sichtweite
Do, 23.05. 2:00 97% 12 km
Mi, 22.05. 20:00 92% 50 km
Mi, 22.05. 14:00 54% 16 km
Mi, 22.05. 8:00 65% 35 km
Mi, 22.05. 2:00 59% 30 km
Di, 21.05. 20:00 47% 30 km
Di, 21.05. 14:00 47% 25 km
Di, 21.05. 8:00 86% 20 km
Ortszeit Relative Feuchte Sichtweite
Do, 23.05. 7:00 95% 7 km
Do, 23.05. 6:00 97% 7 km
Do, 23.05. 5:00 96% 4.0 km
Do, 23.05. 4:00 96% 15 km
Do, 23.05. 3:00 96% 12 km
Do, 23.05. 2:00 97% 12 km
Ortszeit Niederschlagsmenge Niederschlagsart
Do, 23.05. 2:00 0.3 l/m2 in 6 Std. Regen
Mi, 22.05. 20:00 8 l/m2 in 12 Std. Gewitter, Schauer
Mi, 22.05. 14:00 0.1 l/m2 in 6 Std. Schauer
Mi, 22.05. 8:00 0.1 l/m2 in 12 Std. Regen
Mi, 22.05. 2:00 0.1 l/m2 in 6 Std. Regen
Di, 21.05. 20:00 0.0 l/m2 in 12 Std. -
Di, 21.05. 14:00 0.0 l/m2 in 6 Std. -
Di, 21.05. 8:00 0.0 l/m2 in 12 Std. -
Ortszeit Niederschlagsmenge Niederschlagsart
Do, 23.05. 7:00 keine Meldung -
Do, 23.05. 6:00 keine Meldung -
Do, 23.05. 5:00 keine Meldung -
Do, 23.05. 4:00 keine Meldung -
Do, 23.05. 3:00 keine Meldung -
Do, 23.05. 2:00 keine Meldung -
Ortszeit Stärke Spitze Richtung
km/h Bft. km/h Grad Sektor
Do, 23.05. 2:00 14 3 - 260° W
Mi, 22.05. 20:00 14 3 - 290° W
Mi, 22.05. 14:00 11 2 - 100° O
Mi, 22.05. 8:00 14 3 - 100° O
Mi, 22.05. 2:00 18 3 - 70° O
Di, 21.05. 20:00 22 4 47 80° O
Di, 21.05. 14:00 22 4 - 90° O
Di, 21.05. 8:00 14 3 - 80° O
Ortszeit Stärke Spitze Richtung
km/h Bft. km/h Grad Sektor
Do, 23.05. 7:00 11 2 - 250° W
Do, 23.05. 6:00 14 3 - 250° W
Do, 23.05. 5:00 11 2 - 240° SW
Do, 23.05. 4:00 11 2 - 250° W
Do, 23.05. 3:00 14 3 - 250° W
Do, 23.05. 2:00 14 3 - 260° W
Ortszeit Untergrenze Bedeckung Gattung
total tief tief mittel hoch
Do, 23.05. 2:00 180 m 8/8 8/8 Sc - -
Mi, 22.05. 20:00 150 m 8/8 8/8 Sc - -
Mi, 22.05. 14:00 1290 m 7/8 7/8 Cb - -
Mi, 22.05. 8:00 3600 m 7/8 5/8 - As Cs
Mi, 22.05. 2:00 2700 m 7/8 7/8 - As -
Di, 21.05. 20:00 1800 m 6/8 6/8 Sc Ns Cc
Di, 21.05. 14:00 1500 m 6/8 4/8 Cu - Ci
Di, 21.05. 8:00 3000 m 4/8 4/8 - Ac -
Ortszeit Bedeckungsgrad in Achtel und Wolkenuntergrenze
Do, 23.05. 7:00 7(2700m)
Do, 23.05. 6:00 7(2400m)
Do, 23.05. 5:00 8(1800m)
Do, 23.05. 4:00 7(1500m)
Do, 23.05. 3:00 3(300m) 8(1200m)
Do, 23.05. 2:00 2(180m) 8(900m)
Ortszeit Luftdruck NN (hPa) Tendenz (hPa in 3 Std.)
Do, 23.05. 2:00 1011 + 0,2
Mi, 22.05. 20:00 1009 + 2,1
Mi, 22.05. 14:00 1006 - 0,1
Mi, 22.05. 8:00 1006 + 0,2
Mi, 22.05. 2:00 1007 - 0,6
Di, 21.05. 20:00 1007 - 0,9
Di, 21.05. 14:00 1010 - 1,5
Di, 21.05. 8:00 1012 + 0,1
Ortszeit Luftdruck NN (hPa) Tendenz (hPa in 3 Std.)
Do, 23.05. 7:00 1013 + 1,0
Do, 23.05. 6:00 1012 + 1,1
Do, 23.05. 5:00 1012 + 1,1
Do, 23.05. 4:00 1012 + 0,8
Do, 23.05. 3:00 1011 + 0,4
Do, 23.05. 2:00 1011 + 0,2
Ortszeit Schneehöhe (cm)
Do, 23.05. 2:00 0
Mi, 22.05. 20:00 0
Mi, 22.05. 14:00 0
Mi, 22.05. 8:00 0
Mi, 22.05. 2:00 0
Di, 21.05. 20:00 0
Di, 21.05. 14:00 0
Di, 21.05. 8:00 0
Ortszeit Schneehöhe (cm)
Do, 23.05. 7:00 -
Do, 23.05. 6:00 -
Do, 23.05. 5:00 -
Do, 23.05. 4:00 -
Do, 23.05. 3:00 -
Do, 23.05. 2:00 0
Link zu dieser Seite / Seite empfehlen

Das Wetter in ...